Time;durP1;ratioP1;P1;durP2;ratioP2;P2;SDS_P1;SDS_P2;PMS_P1;PMS_P2;Temp;Humidity;BMP_temperature;BMP_pressure;BME280_temperature;BME280_humidity;BME280_pressure;Samples;Min_cycle;Max_cycle;Signal;HPM_P1;HPM_P2
2022/10/19 05:06:37;;;;;;;;;50.00;44.50;;;;;;;;6293723;39;10000131;-61
2022/10/19 05:12:40;;;;;;;;;70.75;56.75;;;;;;;;6489795;31;8848;-62
2022/10/19 05:18:49;;;;;;;;;73.00;58.25;;;;;;;;6490071;39;8960;-62
2022/10/19 08:14:10;;;;;;;;;15.25;15.25;;;;;;;;6490774;31;9059;-60
2022/10/19 08:20:15;;;;;;;;;40.75;36.25;;;;;;;;6489650;39;8873;-62
2022/10/19 08:26:17;;;;;;;;;33.75;32.50;;;;;;;;6490112;31;8898;-61
2022/10/19 08:32:20;;;;;;;;;30.75;26.75;;;;;;;;6488593;39;9023;-62
2022/10/19 08:38:30;;;;;;;;;34.25;29.25;;;;;;;;6488781;39;8917;-61
2022/10/19 08:44:41;;;;;;;;;30.67;30.67;;;;;;;;6488999;31;8905;-61
2022/10/19 08:50:44;;;;;;;;;36.00;36.00;;;;;;;;6488432;46;8926;-62
2022/10/19 08:56:56;;;;;;;;;34.75;34.25;;;;;;;;6489865;39;8887;-60
2022/10/19 09:03:36;;;;;;;;;31.33;28.33;;;;;;;;6353819;31;10000576;-62
2022/10/19 09:10:03;;;;;;;;;33.50;31.00;;;;;;;;6486690;31;8919;-62
2022/10/19 09:16:05;;;;;;;;;31.00;29.33;;;;;;;;6489250;31;9059;-61
2022/10/19 09:22:19;;;;;;;;;31.67;29.67;;;;;;;;6489398;39;8856;-61
2022/10/19 09:28:32;;;;;;;;;33.00;33.00;;;;;;;;6489273;47;8996;-62
2022/10/19 09:34:48;;;;;;;;;33.67;32.00;;;;;;;;6488592;46;8859;-61
2022/10/19 09:40:51;;;;;;;;;34.33;34.33;;;;;;;;6489881;46;9029;-60
2022/10/19 09:47:13;;;;;;;;;27.33;27.00;;;;;;;;6488552;31;8978;-63
2022/10/19 09:53:20;;;;;;;;;33.33;31.00;;;;;;;;6490491;39;9003;-61
2022/10/19 09:59:27;;;;;;;;;32.67;30.67;;;;;;;;6490938;39;9399;-61
2022/10/19 10:05:37;;;;;;;;;29.00;26.00;;;;;;;;6489634;39;8934;-60
2022/10/19 10:11:44;;;;;;;;;26.00;24.00;;;;;;;;6491347;46;8866;-61
2022/10/19 10:17:49;;;;;;;;;28.00;22.67;;;;;;;;6490111;31;8865;-63
2022/10/19 10:24:09;;;;;;;;;40.67;34.67;;;;;;;;6488280;46;9341;-64
2022/10/19 10:30:18;;;;;;;;;25.00;22.67;;;;;;;;6489444;31;8918;-63
2022/10/19 10:36:23;;;;;;;;;29.33;28.33;;;;;;;;6490449;31;9014;-61
2022/10/19 10:42:47;;;;;;;;;21.33;20.00;;;;;;;;6490775;39;8862;-61
2022/10/19 10:48:56;;;;;;;;;48.67;41.67;;;;;;;;6489834;39;8917;-62
2022/10/19 10:55:13;;;;;;;;;51.00;40.67;;;;;;;;6490783;46;8871;-62
2022/10/19 11:01:25;;;;;;;;;60.33;47.00;;;;;;;;6489341;39;8909;-60
2022/10/19 11:07:31;;;;;;;;;40.00;36.67;;;;;;;;6490420;31;9028;-62
2022/10/19 11:13:47;;;;;;;;;25.00;23.67;;;;;;;;6490109;39;9522;-61
2022/10/19 11:19:50;;;;;;;;;23.00;21.00;;;;;;;;6490077;39;8831;-62
2022/10/19 11:26:10;;;;;;;;;61.67;49.00;;;;;;;;6488961;46;8946;-62
2022/10/19 11:32:37;;;;;;;;;72.00;57.33;;;;;;;;6489367;46;8956;-61
2022/10/19 11:38:54;;;;;;;;;65.00;51.33;;;;;;;;6489752;31;8897;-61
2022/10/19 11:45:13;;;;;;;;;55.00;45.00;;;;;;;;6488603;46;8993;-60
2022/10/19 11:51:42;;;;;;;;;28.33;25.33;;;;;;;;6490227;31;8908;-63
2022/10/19 11:57:59;;;;;;;;;43.67;38.67;;;;;;;;6485312;31;8961;-62
2022/10/19 12:04:28;;;;;;;;;19.33;17.00;;;;;;;;6489181;39;8906;-61
2022/10/19 12:10:52;;;;;;;;;36.00;32.67;;;;;;;;6489138;46;9058;-60
2022/10/19 12:17:01;;;;;;;;;25.33;23.33;;;;;;;;6536245;31;8890;-62
2022/10/19 12:23:20;;;;;;;;;24.00;20.67;;;;;;;;6490090;31;8858;-60
2022/10/19 12:29:39;;;;;;;;;54.00;44.33;;;;;;;;6490020;39;8885;-61
2022/10/19 12:35:47;;;;;;;;;30.67;30.33;;;;;;;;6490309;31;8949;-61
2022/10/19 12:42:18;;;;;;;;;36.33;34.67;;;;;;;;6488948;39;8850;-62
2022/10/19 12:48:23;;;;;;;;;60.67;50.67;;;;;;;;6489894;39;8956;-61
2022/10/19 12:54:28;;;;;;;;;76.75;64.50;;;;;;;;6489363;46;9053;-62
2022/10/19 13:00:35;;;;;;;;;78.67;66.00;;;;;;;;6489394;39;8901;-60
2022/10/19 13:06:44;;;;;;;;;15.67;15.67;;;;;;;;6487566;39;9577;-62
2022/10/19 13:12:47;;;;;;;;;80.25;64.25;;;;;;;;6487570;31;9451;-61
2022/10/19 13:19:13;;;;;;;;;65.00;52.67;;;;;;;;6486896;39;9467;-63
2022/10/19 13:25:25;;;;;;;;;113.00;105.00;;;;;;;;6489752;39;8879;-63
2022/10/19 13:31:30;;;;;;;;;81.25;68.00;;;;;;;;6489416;39;8858;-62
2022/10/19 13:37:32;;;;;;;;;73.50;59.50;;;;;;;;6488914;39;8957;-62
2022/10/19 13:44:00;;;;;;;;;75.00;59.67;;;;;;;;6489787;39;8906;-62
2022/10/19 13:50:16;;;;;;;;;123.00;113.25;;;;;;;;6488904;31;8875;-63
2022/10/19 13:56:48;;;;;;;;;63.00;50.25;;;;;;;;6487669;39;8877;-63
2022/10/19 14:03:08;;;;;;;;;51.00;42.00;;;;;;;;6487051;31;10013;-62
2022/10/19 14:09:31;;;;;;;;;23.67;23.67;;;;;;;;6488986;39;9556;-61
2022/10/19 14:15:34;;;;;;;;;23.67;20.67;;;;;;;;6489742;39;9453;-61
2022/10/19 14:21:36;;;;;;;;;21.00;20.00;;;;;;;;6489662;39;8835;-61
2022/10/19 14:27:39;;;;;;;;;18.67;16.67;;;;;;;;6492123;31;8919;-62
2022/10/19 14:33:46;;;;;;;;;23.33;23.33;;;;;;;;6490044;46;8835;-61
2022/10/19 14:40:11;;;;;;;;;21.33;21.33;;;;;;;;6492298;31;8914;-62
2022/10/19 14:46:14;;;;;;;;;26.67;23.67;;;;;;;;6491022;31;8969;-63
2022/10/19 14:52:29;;;;;;;;;23.67;23.33;;;;;;;;6492387;39;8843;-63
2022/10/19 14:58:40;;;;;;;;;33.00;31.33;;;;;;;;6492401;39;9575;-62
2022/10/19 15:04:42;;;;;;;;;33.67;28.33;;;;;;;;6491536;46;8938;-62
2022/10/19 15:10:47;;;;;;;;;23.33;21.00;;;;;;;;6491420;39;8944;-63
2022/10/19 15:16:52;;;;;;;;;23.33;22.00;;;;;;;;6491297;39;8866;-62
2022/10/19 15:22:57;;;;;;;;;22.33;22.33;;;;;;;;6492349;31;9462;-61
2022/10/19 15:29:18;;;;;;;;;26.33;22.00;;;;;;;;6491735;39;8915;-61
2022/10/19 15:35:31;;;;;;;;;27.00;25.00;;;;;;;;6491880;31;8833;-61
2022/10/19 15:41:38;;;;;;;;;25.00;23.67;;;;;;;;6490189;39;8898;-63
2022/10/19 15:48:09;;;;;;;;;25.67;25.67;;;;;;;;6491353;39;8866;-61
2022/10/19 15:54:16;;;;;;;;;23.67;22.67;;;;;;;;6491052;46;8933;-61
2022/10/19 16:00:19;;;;;;;;;34.33;32.67;;;;;;;;6490516;39;8908;-60
2022/10/19 16:06:23;;;;;;;;;37.33;35.00;;;;;;;;6491705;31;9179;-62
2022/10/19 16:12:26;;;;;;;;;31.33;31.33;;;;;;;;6490271;39;9455;-61
2022/10/19 16:18:28;;;;;;;;;36.67;34.67;;;;;;;;6490968;39;9382;-61
2022/10/19 16:24:30;;;;;;;;;32.33;29.67;;;;;;;;6490546;39;8866;-61
2022/10/19 16:30:33;;;;;;;;;31.33;31.00;;;;;;;;6490970;31;8886;-61
2022/10/19 16:36:35;;;;;;;;;36.75;33.00;;;;;;;;6490450;46;8930;-62
2022/10/19 16:42:37;;;;;;;;;38.67;32.67;;;;;;;;6489566;39;8850;-62
2022/10/19 16:48:42;;;;;;;;;41.67;38.00;;;;;;;;6488890;39;8882;-62
2022/10/19 16:54:43;;;;;;;;;37.33;34.00;;;;;;;;6491071;31;8951;-62
2022/10/19 17:00:45;;;;;;;;;51.25;39.50;;;;;;;;6488421;31;8857;-62
2022/10/19 17:06:47;;;;;;;;;54.00;44.75;;;;;;;;6489114;46;9132;-62
2022/10/19 17:12:50;;;;;;;;;59.75;49.00;;;;;;;;6487921;39;8883;-64
2022/10/19 17:18:57;;;;;;;;;47.75;41.25;;;;;;;;6488525;46;8813;-61
2022/10/19 17:25:00;;;;;;;;;51.25;43.50;;;;;;;;6488149;39;9043;-62
2022/10/19 17:31:11;;;;;;;;;46.50;39.00;;;;;;;;6488933;39;8892;-61
2022/10/19 17:37:15;;;;;;;;;52.00;41.50;;;;;;;;6488421;31;8893;-61
2022/10/19 17:43:17;;;;;;;;;54.75;46.50;;;;;;;;6487718;31;8987;-61
2022/10/19 17:49:20;;;;;;;;;52.75;43.00;;;;;;;;6488999;39;8825;-63
2022/10/19 17:55:25;;;;;;;;;49.00;43.25;;;;;;;;6487630;39;9021;-62
2022/10/19 18:01:28;;;;;;;;;45.25;39.25;;;;;;;;6488836;46;9508;-62
2022/10/19 18:07:31;;;;;;;;;49.50;42.25;;;;;;;;6491456;31;9061;-62
2022/10/19 18:13:34;;;;;;;;;49.00;42.00;;;;;;;;6489638;39;8877;-62
2022/10/19 18:19:38;;;;;;;;;49.75;41.00;;;;;;;;6491676;31;8895;-61
2022/10/19 18:25:40;;;;;;;;;65.25;50.50;;;;;;;;6490196;39;9622;-62
2022/10/19 18:31:55;;;;;;;;;52.25;43.50;;;;;;;;6490087;46;8955;-61
2022/10/19 18:37:57;;;;;;;;;55.25;45.50;;;;;;;;6490211;31;8962;-63
2022/10/19 18:44:02;;;;;;;;;55.00;46.75;;;;;;;;6489634;39;8937;-61
2022/10/19 18:50:04;;;;;;;;;46.00;40.25;;;;;;;;6490056;39;8844;-62
2022/10/19 18:56:09;;;;;;;;;52.00;44.75;;;;;;;;6491351;31;8955;-62
2022/10/19 19:02:11;;;;;;;;;57.00;47.50;;;;;;;;6490253;31;8896;-61
2022/10/19 19:08:23;;;;;;;;;54.25;45.25;;;;;;;;6490388;39;8907;-61
2022/10/19 19:14:25;;;;;;;;;54.75;43.75;;;;;;;;6489495;39;8955;-62
2022/10/19 19:20:27;;;;;;;;;56.25;47.75;;;;;;;;6490081;46;8963;-62
2022/10/19 19:26:34;;;;;;;;;61.75;48.50;;;;;;;;6488840;39;8911;-61
2022/10/19 19:32:36;;;;;;;;;63.75;49.00;;;;;;;;6489877;39;8840;-61
2022/10/19 19:38:39;;;;;;;;;57.00;45.00;;;;;;;;6489792;39;8926;-61
2022/10/19 19:44:41;;;;;;;;;55.00;45.00;;;;;;;;6489035;31;8914;-61
2022/10/19 19:50:45;;;;;;;;;50.50;40.00;;;;;;;;6490612;31;8905;-61
2022/10/19 19:56:52;;;;;;;;;44.75;39.75;;;;;;;;6489206;46;8870;-61
2022/10/19 20:02:56;;;;;;;;;36.50;32.75;;;;;;;;6489850;46;8984;-62
2022/10/19 20:08:58;;;;;;;;;25.00;25.00;;;;;;;;6489349;31;8910;-61
2022/10/19 20:15:00;;;;;;;;;27.33;23.00;;;;;;;;6489518;31;8949;-62
2022/10/19 20:21:04;;;;;;;;;19.33;19.33;;;;;;;;6489478;39;8870;-61
2022/10/19 20:27:06;;;;;;;;;23.00;20.00;;;;;;;;6489902;31;8890;-61
2022/10/19 20:33:08;;;;;;;;;21.33;18.00;;;;;;;;6490113;39;8831;-60
2022/10/19 20:39:12;;;;;;;;;26.00;26.00;;;;;;;;6488680;31;8914;-61
2022/10/19 20:45:15;;;;;;;;;23.00;21.67;;;;;;;;6488843;31;8910;-61
2022/10/19 20:51:20;;;;;;;;;26.75;21.50;;;;;;;;6489562;46;8909;-61
2022/10/19 20:57:25;;;;;;;;;23.25;20.75;;;;;;;;6487970;31;8937;-61
2022/10/19 21:03:27;;;;;;;;;20.33;18.00;;;;;;;;6489277;39;8937;-62
2022/10/19 21:09:29;;;;;;;;;24.67;22.00;;;;;;;;6488603;39;9013;-62
2022/10/19 21:15:31;;;;;;;;;24.00;22.33;;;;;;;;6488308;46;9054;-61
2022/10/19 21:21:35;;;;;;;;;18.33;18.00;;;;;;;;6489633;39;8870;-61
2022/10/19 21:27:37;;;;;;;;;21.00;20.00;;;;;;;;6488227;39;8906;-61
2022/10/19 21:33:40;;;;;;;;;20.33;19.00;;;;;;;;6489777;39;8866;-62
2022/10/19 21:39:42;;;;;;;;;17.00;17.00;;;;;;;;6488476;31;10065;-62
2022/10/19 21:45:55;;;;;;;;;16.00;13.50;;;;;;;;6169679;31;10002133;-61
2022/10/19 21:51:57;;;;;;;;;20.00;19.67;;;;;;;;6377335;31;10001696;-62
2022/10/19 21:58:00;;;;;;;;;16.33;14.00;;;;;;;;6488123;47;8885;-61
2022/10/19 22:04:04;;;;;;;;;16.00;13.00;;;;;;;;6489050;39;8891;-61
2022/10/19 22:10:06;;;;;;;;;15.75;14.00;;;;;;;;6488036;47;8928;-61
2022/10/19 22:16:13;;;;;;;;;13.33;12.33;;;;;;;;6487464;47;8986;-61
2022/10/19 22:22:16;;;;;;;;;13.33;11.00;;;;;;;;6488557;31;8880;-61
2022/10/19 22:28:18;;;;;;;;;18.67;16.33;;;;;;;;6307504;36;10001172;-61
2022/10/19 22:34:20;;;;;;;;;11.67;11.67;;;;;;;;6488954;31;9295;-60
2022/10/19 22:40:22;;;;;;;;;13.33;12.33;;;;;;;;6488506;31;8878;-62
2022/10/19 22:46:24;;;;;;;;;11.00;11.00;;;;;;;;6488397;31;8907;-61
2022/10/19 22:52:27;;;;;;;;;10.00;10.00;;;;;;;;6491451;46;8924;-63
2022/10/19 22:58:29;;;;;;;;;11.67;10.33;;;;;;;;6493112;31;8867;-61
2022/10/19 23:04:31;;;;;;;;;13.67;9.33;;;;;;;;6490138;46;8879;-61
2022/10/19 23:10:33;;;;;;;;;12.00;12.00;;;;;;;;6490848;39;9565;-61
2022/10/19 23:16:37;;;;;;;;;10.00;10.00;;;;;;;;6490489;39;8938;-62
2022/10/19 23:22:39;;;;;;;;;13.00;10.33;;;;;;;;6490872;39;9706;-62
2022/10/19 23:28:48;;;;;;;;;3.00;2.67;;;;;;;;6489577;46;9020;-61
2022/10/19 23:34:50;;;;;;;;;11.33;11.33;;;;;;;;6491582;39;8844;-62
2022/10/19 23:40:52;;;;;;;;;13.67;11.67;;;;;;;;6490157;39;8871;-62
2022/10/19 23:46:54;;;;;;;;;12.00;12.00;;;;;;;;6491986;31;8958;-61
2022/10/19 23:52:56;;;;;;;;;13.33;12.00;;;;;;;;6490160;46;8860;-60
2022/10/19 23:58:58;;;;;;;;;10.33;10.33;;;;;;;;6489540;31;8855;-61
